Time;durP1;ratioP1;P1;durP2;ratioP2;P2;SDS_P1;SDS_P2;PMS_P1;PMS_P2;Temp;Humidity;BMP_temperature;BMP_pressure;BME280_temperature;BME280_humidity;BME280_pressure;Samples;Min_cycle;Max_cycle;Signal;HPM_P1;HPM_P2
2021/04/20 00:00:11;;;;;;;98.35;47.97;;;4.90;99.90;;;;;;4186557;28;20083;-86
2021/04/20 00:02:13;;;;;;;88.63;43.05;;;4.80;99.90;;;;;;4155322;28;20038;-86
2021/04/20 00:04:13;;;;;;;76.70;39.80;;;4.70;99.90;;;;;;4166848;28;20480;-87
2021/04/20 00:06:14;;;;;;;81.53;41.63;;;4.60;99.90;;;;;;4162235;28;20057;-87
2021/04/20 00:08:15;;;;;;;91.40;41.50;;;4.60;99.90;;;;;;4162092;28;20103;-86
2021/04/20 00:10:19;;;;;;;88.82;43.05;;;4.50;99.90;;;;;;4170473;28;20029;-87
2021/04/20 00:12:20;;;;;;;83.25;43.40;;;4.50;99.90;;;;;;4189234;28;20078;-86
2021/04/20 00:14:20;;;;;;;90.70;43.85;;;4.60;99.90;;;;;;4166919;28;20067;-87
2021/04/20 00:16:21;;;;;;;93.40;44.05;;;4.70;99.90;;;;;;4189042;28;20036;-87
2021/04/20 00:18:22;;;;;;;88.00;43.20;;;4.70;99.90;;;;;;4188349;28;20357;-87
2021/04/20 00:20:23;;;;;;;85.05;43.15;;;4.70;99.90;;;;;;4181754;28;20107;-87
2021/04/20 00:22:24;;;;;;;89.32;42.30;;;4.70;99.90;;;;;;4168863;28;20028;-87
2021/04/20 00:24:24;;;;;;;87.65;43.08;;;4.70;99.90;;;;;;4182612;28;20059;-87
2021/04/20 00:26:25;;;;;;;91.10;45.13;;;4.70;99.90;;;;;;4164967;28;20412;-87
2021/04/20 00:28:27;;;;;;;92.72;43.17;;;4.60;99.90;;;;;;4163915;28;20024;-87
2021/04/20 00:30:28;;;;;;;75.32;39.53;;;4.60;99.90;;;;;;4164977;28;20030;-87
2021/04/20 00:32:29;;;;;;;82.93;42.00;;;4.60;99.90;;;;;;4158344;28;20072;-89
2021/04/20 00:34:29;;;;;;;85.68;41.92;;;4.60;99.90;;;;;;4181603;28;20031;-87
2021/04/20 00:36:30;;;;;;;90.38;43.75;;;4.60;99.90;;;;;;4164017;28;20048;-87
2021/04/20 00:38:34;;;;;;;84.88;43.30;;;4.60;99.90;;;;;;4181481;28;20033;-88
2021/04/20 00:40:35;;;;;;;73.40;39.70;;;4.50;99.90;;;;;;4181541;28;20033;-87
2021/04/20 00:42:49;;;;;;;81.63;43.15;;;4.50;99.90;;;;;;4182553;28;20033;-87
2021/04/20 00:44:50;;;;;;;83.85;42.90;;;4.60;99.90;;;;;;4181142;28;20046;-87
2021/04/20 00:46:51;;;;;;;97.78;44.90;;;4.60;99.90;;;;;;4182745;28;20040;-87
2021/04/20 00:48:52;;;;;;;86.25;42.40;;;4.60;99.90;;;;;;4170797;28;20072;-87
2021/04/20 00:50:52;;;;;;;91.28;44.38;;;4.60;99.90;;;;;;4181460;28;20040;-87
2021/04/20 00:52:55;;;;;;;90.50;43.55;;;4.70;99.90;;;;;;4182937;28;20412;-88
2021/04/20 00:54:55;;;;;;;96.40;44.63;;;4.80;99.90;;;;;;4184013;28;20041;-87
2021/04/20 00:56:56;;;;;;;95.95;45.08;;;4.80;99.90;;;;;;4183226;28;20167;-87
2021/04/20 00:58:56;;;;;;;94.90;43.05;;;4.90;99.90;;;;;;4182670;28;20400;-86
2021/04/20 01:00:58;;;;;;;87.75;43.60;;;4.80;99.90;;;;;;4183727;28;20045;-87
2021/04/20 01:02:59;;;;;;;86.05;42.42;;;4.70;99.90;;;;;;4166209;28;20091;-87
2021/04/20 01:05:00;;;;;;;79.10;38.95;;;4.60;99.90;;;;;;4169158;28;20083;-87
2021/04/20 01:07:02;;;;;;;76.93;41.17;;;4.50;99.90;;;;;;4181857;28;20094;-81
2021/04/20 01:09:05;;;;;;;78.28;41.20;;;4.50;99.90;;;;;;4164046;28;20030;-86
2021/04/20 01:11:07;;;;;;;85.03;40.25;;;4.40;99.90;;;;;;4164624;28;20037;-87
2021/04/20 01:13:10;;;;;;;83.63;41.10;;;4.30;99.90;;;;;;4166003;28;20045;-87
2021/04/20 01:15:13;;;;;;;83.60;41.58;;;4.20;99.90;;;;;;4166043;28;20093;-87
2021/04/20 01:17:14;;;;;;;77.38;38.13;;;4.20;99.90;;;;;;4165668;28;20028;-87
2021/04/20 01:19:15;;;;;;;76.88;37.80;;;4.20;99.90;;;;;;4183277;28;20025;-87
2021/04/20 01:21:17;;;;;;;79.88;40.42;;;4.10;99.90;;;;;;4167199;28;20026;-87
2021/04/20 01:23:47;;;;;;;87.68;40.90;;;4.00;99.90;;;;;;4167277;28;20496;-86
2021/04/20 01:25:48;;;;;;;85.45;38.58;;;4.00;99.90;;;;;;4171737;28;20039;-87
2021/04/20 01:27:49;;;;;;;88.72;40.35;;;3.90;99.90;;;;;;4185543;28;20029;-87
2021/04/20 01:29:56;;;;;;;85.20;41.72;;;3.90;99.90;;;;;;4184790;28;20472;-87
2021/04/20 01:31:56;;;;;;;97.57;42.35;;;3.90;99.90;;;;;;4181134;28;20385;-87
2021/04/20 01:33:57;;;;;;;93.25;43.63;;;4.00;99.90;;;;;;4186616;28;20042;-87
2021/04/20 01:35:59;;;;;;;89.00;45.40;;;4.00;99.90;;;;;;4181567;28;20021;-87
2021/04/20 01:38:06;;;;;;;87.80;42.70;;;3.90;99.90;;;;;;4186464;28;20045;-87
2021/04/20 01:40:09;;;;;;;85.47;42.03;;;3.90;99.90;;;;;;4186238;28;20064;-87
2021/04/20 01:42:11;;;;;;;87.05;43.63;;;3.80;99.90;;;;;;4181558;28;20025;-87
2021/04/20 01:44:11;;;;;;;92.43;42.95;;;3.80;99.90;;;;;;4181341;28;20033;-87
2021/04/20 01:46:15;;;;;;;96.15;45.75;;;3.80;99.90;;;;;;4166043;28;20551;-86
2021/04/20 01:48:16;;;;;;;96.07;41.40;;;3.80;99.90;;;;;;4197426;28;20028;-87
2021/04/20 01:50:16;;;;;;;99.78;41.80;;;3.80;99.90;;;;;;4172912;28;20026;-86
2021/04/20 01:52:17;;;;;;;93.32;41.47;;;3.80;99.90;;;;;;4181627;28;20037;-87
2021/04/20 01:54:18;;;;;;;91.95;41.00;;;3.80;99.90;;;;;;4164557;28;20140;-86
2021/04/20 01:56:19;;;;;;;86.97;41.92;;;3.80;99.90;;;;;;4180946;28;20112;-86
2021/04/20 01:58:20;;;;;;;89.90;42.17;;;3.80;99.90;;;;;;4162406;28;20116;-86
2021/04/20 02:00:21;;;;;;;92.13;40.15;;;3.90;99.90;;;;;;4181139;28;21272;-85
2021/04/20 02:02:22;;;;;;;97.05;41.33;;;3.80;99.90;;;;;;4181737;28;20468;-85
2021/04/20 02:04:23;;;;;;;90.15;41.80;;;3.80;99.90;;;;;;4164440;28;20032;-86
2021/04/20 02:06:25;;;;;;;91.05;41.55;;;3.80;99.90;;;;;;4161517;28;20033;-85
2021/04/20 02:08:26;;;;;;;88.60;40.20;;;3.70;99.90;;;;;;4183578;28;20036;-86
2021/04/20 02:10:27;;;;;;;77.70;38.13;;;3.60;99.90;;;;;;4179612;28;20044;-86
2021/04/20 02:12:27;;;;;;;85.72;37.85;;;3.60;99.90;;;;;;4165610;28;20556;-88
2021/04/20 02:14:29;;;;;;;77.68;37.85;;;3.50;99.90;;;;;;4166599;28;20034;-86
2021/04/20 02:16:30;;;;;;;84.85;40.17;;;3.40;99.90;;;;;;4183417;28;20033;-86
2021/04/20 02:18:33;;;;;;;97.18;42.88;;;3.30;99.90;;;;;;4184479;28;20028;-86
2021/04/20 02:20:35;;;;;;;;;;;3.30;99.90;;;;;;4167575;28;20380;-86
2021/04/20 02:22:37;;;;;;;90.13;38.30;;;3.30;99.90;;;;;;4168715;28;19913;-86
2021/04/20 02:24:39;;;;;;;100.70;44.92;;;3.30;99.90;;;;;;4186677;28;20083;-86
2021/04/20 02:26:41;;;;;;;100.32;41.67;;;3.40;99.90;;;;;;4186637;28;20147;-87
2021/04/20 02:28:42;;;;;;;85.95;44.22;;;3.30;99.90;;;;;;4182297;28;20043;-87
2021/04/20 02:30:43;;;;;;;99.35;42.00;;;3.30;99.90;;;;;;4187647;28;20064;-87
2021/04/20 02:32:44;;;;;;;94.75;44.40;;;3.20;99.90;;;;;;4163260;28;20029;-86
2021/04/20 02:34:45;;;;;;;102.20;46.83;;;3.20;99.90;;;;;;4183676;28;20040;-87
2021/04/20 02:36:48;;;;;;;108.20;47.75;;;3.20;99.90;;;;;;4173633;28;20041;-86
2021/04/20 02:38:49;;;;;;;;;;;3.20;99.90;;;;;;4173449;28;20037;-86
2021/04/20 02:40:54;;;;;;;99.93;42.72;;;3.20;99.90;;;;;;4163152;28;19909;-86
2021/04/20 02:42:55;;;;;;;108.28;48.25;;;3.20;99.90;;;;;;4146378;28;20026;-86
2021/04/20 02:45:00;;;;;;;107.18;44.17;;;3.20;99.90;;;;;;4179518;28;20029;-86
2021/04/20 02:47:03;;;;;;;120.20;46.85;;;3.20;99.90;;;;;;4181025;28;20393;-86
2021/04/20 02:49:05;;;;;;;107.18;46.92;;;3.30;99.90;;;;;;4171534;28;20033;-86
2021/04/20 02:51:11;;;;;;;99.15;47.63;;;3.30;99.90;;;;;;4194407;28;20036;-87
2021/04/20 02:53:16;;;;;;;122.10;51.03;;;3.30;99.90;;;;;;4161620;28;20029;-86
2021/04/20 02:55:18;;;;;;;103.28;44.83;;;3.30;99.90;;;;;;4173332;28;20503;-87
2021/04/20 02:57:21;;;;;;;110.07;47.77;;;3.30;99.90;;;;;;4180867;28;20063;-86
2021/04/20 02:59:22;;;;;;;105.40;48.72;;;3.30;99.90;;;;;;4191179;28;20041;-86
2021/04/20 03:01:26;;;;;;;109.53;46.80;;;3.20;99.90;;;;;;4176819;28;20032;-85
2021/04/20 03:03:28;;;;;;;108.22;44.30;;;3.10;99.90;;;;;;4178194;28;20037;-87
2021/04/20 03:05:30;;;;;;;107.35;42.75;;;3.10;99.90;;;;;;4173423;28;20036;-87
2021/04/20 03:07:31;;;;;;;90.68;44.38;;;3.10;99.90;;;;;;4180916;28;20053;-87
2021/04/20 03:09:34;;;;;;;104.85;46.65;;;3.00;99.90;;;;;;4163417;28;20141;-86
2021/04/20 03:11:41;;;;;;;110.78;46.08;;;2.90;99.90;;;;;;4175555;28;20033;-87
2021/04/20 03:13:43;;;;;;;115.57;46.17;;;2.80;99.90;;;;;;4193451;28;20488;-86
2021/04/20 03:15:44;;;;;;;108.63;46.92;;;2.70;99.90;;;;;;4181366;28;20091;-86
2021/04/20 03:17:48;;;;;;;105.00;46.58;;;2.70;99.90;;;;;;4163353;28;20038;-86
2021/04/20 03:19:48;;;;;;;113.22;46.75;;;2.80;99.90;;;;;;4162555;28;20427;-86
2021/04/20 03:21:51;;;;;;;108.13;44.53;;;2.80;99.90;;;;;;4161705;28;20030;-86
2021/04/20 03:23:52;;;;;;;109.53;49.22;;;2.90;99.90;;;;;;4182385;28;20151;-86
2021/04/20 03:25:52;;;;;;;119.75;48.83;;;2.90;99.90;;;;;;4165153;28;20094;-86
2021/04/20 03:27:56;;;;;;;117.55;45.58;;;2.90;99.90;;;;;;4183295;28;20128;-86
2021/04/20 03:29:57;;;;;;;101.68;46.33;;;2.90;99.90;;;;;;4184078;28;20033;-85
2021/04/20 03:31:58;;;;;;;102.70;46.45;;;2.90;99.90;;;;;;4186033;28;20090;-86
2021/04/20 03:34:22;;;;;;;112.03;44.72;;;2.90;99.90;;;;;;4180102;28;20025;-86
2021/04/20 03:36:27;;;;;;;124.70;47.88;;;2.80;99.90;;;;;;4179852;28;20025;-85
2021/04/20 03:38:51;;;;;;;101.97;45.67;;;2.70;99.90;;;;;;4184282;28;20021;-85
2021/04/20 03:40:57;;;;;;;90.78;44.17;;;2.60;99.90;;;;;;4177455;28;20077;-86
2021/04/20 03:43:02;;;;;;;92.75;41.00;;;2.60;99.90;;;;;;4162604;28;20034;-86
2021/04/20 03:45:14;;;;;;;103.03;44.38;;;2.60;99.90;;;;;;4160132;28;20505;-84
2021/04/20 03:47:36;;;;;;;121.07;47.00;;;2.60;99.90;;;;;;4153089;28;20058;-86
2021/04/20 03:49:38;;;;;;;112.72;46.50;;;2.60;99.90;;;;;;4161226;28;20033;-86
2021/04/20 03:51:43;;;;;;;102.68;46.63;;;2.60;99.90;;;;;;4163222;28;20037;-85
2021/04/20 03:53:47;;;;;;;114.32;47.20;;;2.70;99.90;;;;;;4179952;28;20064;-85
2021/04/20 03:55:50;;;;;;;137.15;50.97;;;2.70;99.90;;;;;;4181695;28;20029;-85
2021/04/20 03:57:54;;;;;;;118.15;45.05;;;2.70;99.90;;;;;;4161114;28;20451;-85
2021/04/20 03:59:58;;;;;;;107.07;45.50;;;2.70;99.90;;;;;;4185281;28;20399;-86
2021/04/20 04:02:00;;;;;;;108.53;46.47;;;2.70;99.90;;;;;;4186454;28;20499;-85
2021/04/20 04:04:01;;;;;;;106.70;44.85;;;2.70;99.90;;;;;;4186867;28;20033;-86
2021/04/20 04:06:05;;;;;;;117.50;47.75;;;2.60;99.90;;;;;;4169976;28;20055;-85
2021/04/20 04:08:07;;;;;;;120.18;46.25;;;2.60;99.90;;;;;;4184796;28;20029;-85
2021/04/20 04:10:08;;;;;;;104.70;42.85;;;2.60;99.90;;;;;;4165597;28;20125;-85
2021/04/20 04:12:10;;;;;;;119.40;44.05;;;2.50;99.90;;;;;;4170874;28;20036;-86
2021/04/20 04:14:13;;;;;;;106.85;45.58;;;2.50;99.90;;;;;;4169847;28;20127;-86
2021/04/20 04:16:16;;;;;;;102.95;44.10;;;2.50;99.90;;;;;;4191583;28;20025;-86
2021/04/20 04:18:18;;;;;;;118.22;47.47;;;2.50;99.90;;;;;;4168253;28;20043;-86
2021/04/20 04:20:19;;;;;;;109.88;45.85;;;2.50;99.90;;;;;;4171541;28;20527;-86
2021/04/20 04:22:28;;;;;;;113.03;43.60;;;2.50;99.90;;;;;;4171925;28;20028;-86
2021/04/20 04:24:39;;;;;;;124.22;44.85;;;2.40;99.90;;;;;;4176907;28;20588;-86
2021/04/20 04:26:45;;;;;;;120.10;43.05;;;2.40;99.90;;;;;;4193470;28;20043;-86
2021/04/20 04:28:51;;;;;;;115.85;43.83;;;2.40;99.90;;;;;;4183121;28;20127;-86
2021/04/20 04:30:52;;;;;;;106.97;44.97;;;2.40;99.90;;;;;;4174353;28;20041;-86
2021/04/20 04:32:53;;;;;;;114.88;46.45;;;2.40;99.90;;;;;;4176849;28;20048;-86
2021/04/20 04:34:55;;;;;;;123.75;45.95;;;2.40;99.90;;;;;;4195221;28;20036;-86
2021/04/20 04:36:56;;;;;;;115.78;47.33;;;2.40;99.90;;;;;;4168537;28;20123;-86
2021/04/20 04:38:59;;;;;;;114.90;45.40;;;2.50;99.90;;;;;;4176092;28;20452;-86
2021/04/20 04:41:00;;;;;;;106.10;45.38;;;2.40;99.90;;;;;;4166209;28;20061;-86
2021/04/20 04:43:01;;;;;;;102.50;44.72;;;2.40;99.90;;;;;;4165028;28;20034;-79
2021/04/20 04:45:05;;;;;;;98.35;41.67;;;2.40;99.90;;;;;;4163148;28;20083;-85
2021/04/20 04:47:06;;;;;;;102.55;44.90;;;2.40;99.90;;;;;;4169078;28;20037;-85
2021/04/20 04:49:08;;;;;;;107.75;44.33;;;2.40;99.90;;;;;;4188545;28;20033;-85
2021/04/20 04:51:10;;;;;;;112.97;45.47;;;2.50;99.90;;;;;;4166483;28;20040;-86
2021/04/20 04:53:11;;;;;;;125.55;48.55;;;2.60;99.90;;;;;;4181997;28;20033;-86
2021/04/20 04:55:12;;;;;;;110.45;45.78;;;2.60;99.90;;;;;;4165000;28;20025;-86
2021/04/20 04:57:15;;;;;;;119.75;49.03;;;2.70;99.90;;;;;;4170622;28;20488;-86
2021/04/20 04:59:19;;;;;;;114.85;48.28;;;2.70;99.90;;;;;;4163222;28;20044;-86
2021/04/20 05:01:21;;;;;;;111.03;48.80;;;2.90;99.90;;;;;;4168648;28;20041;-86
2021/04/20 05:03:23;;;;;;;109.20;48.40;;;3.00;99.90;;;;;;4172106;28;20093;-85
2021/04/20 05:05:25;;;;;;;119.30;51.75;;;3.00;99.90;;;;;;4178939;28;20049;-86
2021/04/20 05:07:26;;;;;;;135.23;50.13;;;3.00;99.90;;;;;;4179836;28;20068;-86
2021/04/20 05:09:26;;;;;;;112.80;49.65;;;3.00;99.90;;;;;;4181377;28;20119;-85
2021/04/20 05:11:28;;;;;;;123.38;50.20;;;3.00;99.90;;;;;;4160711;28;20029;-86
2021/04/20 05:13:33;;;;;;;123.97;48.17;;;3.00;99.90;;;;;;4163873;28;20493;-86
2021/04/20 05:15:34;;;;;;;115.30;47.25;;;3.00;99.90;;;;;;4164303;28;20033;-86
2021/04/20 05:17:36;;;;;;;113.60;46.92;;;3.00;99.90;;;;;;4164627;28;20037;-85
2021/04/20 05:19:39;;;;;;;106.03;44.75;;;3.00;99.90;;;;;;4183815;28;20030;-85
2021/04/20 05:21:40;;;;;;;116.18;43.95;;;3.10;99.90;;;;;;4185159;28;20056;-85
2021/04/20 05:23:41;;;;;;;118.32;48.78;;;3.10;99.90;;;;;;4164823;28;20049;-86
2021/04/20 05:25:42;;;;;;;116.70;47.45;;;3.10;99.90;;;;;;4182269;28;20384;-85
2021/04/20 05:27:44;;;;;;;110.25;46.25;;;3.20;99.90;;;;;;4189609;28;20039;-85
2021/04/20 05:29:45;;;;;;;111.28;45.70;;;3.20;99.90;;;;;;4163104;28;20033;-85
2021/04/20 05:31:46;;;;;;;122.82;47.50;;;3.20;99.90;;;;;;4181974;28;20503;-85
2021/04/20 05:33:54;;;;;;;111.57;46.30;;;3.30;99.90;;;;;;4181708;28;20045;-85
2021/04/20 05:36:04;;;;;;;125.88;48.28;;;3.30;99.90;;;;;;4164431;28;20104;-86
2021/04/20 05:38:05;;;;;;;114.53;48.33;;;3.40;99.90;;;;;;4185730;28;20035;-83
2021/04/20 05:40:14;;;;;;;117.93;49.17;;;3.40;99.90;;;;;;4168030;28;20033;-85
2021/04/20 05:42:14;;;;;;;123.25;47.78;;;3.50;99.90;;;;;;4163288;28;20072;-85
2021/04/20 05:44:15;;;;;;;126.38;50.25;;;3.60;99.90;;;;;;4182510;28;20512;-86
2021/04/20 05:46:16;;;;;;;132.10;51.67;;;3.70;99.90;;;;;;4183191;28;20483;-85
2021/04/20 05:48:17;;;;;;;125.50;53.42;;;3.80;99.90;;;;;;4181200;28;20507;-86
2021/04/20 05:50:20;;;;;;;125.13;48.67;;;3.90;99.90;;;;;;4190307;28;20030;-86
2021/04/20 05:52:21;;;;;;;119.47;51.20;;;4.00;99.90;;;;;;4188178;28;20033;-83
2021/04/20 05:54:21;;;;;;;135.65;51.30;;;4.00;99.90;;;;;;4181583;28;20108;-84
2021/04/20 05:56:23;;;;;;;143.07;54.53;;;4.10;99.90;;;;;;4164677;28;20648;-82
2021/04/20 05:58:24;;;;;;;135.15;51.53;;;4.10;99.90;;;;;;4181599;28;20448;-84
2021/04/20 06:00:26;;;;;;;115.13;47.90;;;4.20;99.90;;;;;;4180541;28;20025;-82
2021/04/20 06:02:33;;;;;;;142.15;54.00;;;4.30;99.90;;;;;;4164648;28;20076;-82
2021/04/20 06:04:34;;;;;;;136.23;52.75;;;4.40;99.90;;;;;;4183210;28;20025;-83
2021/04/20 06:06:37;;;;;;;127.38;49.72;;;4.50;99.90;;;;;;4181242;28;20043;-86
2021/04/20 06:08:39;;;;;;;133.80;56.97;;;4.50;99.90;;;;;;4193463;28;20095;-85
2021/04/20 06:10:40;;;;;;;150.43;56.42;;;4.60;99.90;;;;;;4177018;28;20035;-84
2021/04/20 06:12:43;;;;;;;162.27;58.50;;;4.80;99.90;;;;;;4170283;28;20045;-84
2021/04/20 06:14:44;;;;;;;149.77;57.22;;;4.90;99.90;;;;;;4162849;28;20037;-83
2021/04/20 06:16:45;;;;;;;135.32;56.67;;;5.00;99.90;;;;;;4192650;28;20455;-83
2021/04/20 06:18:46;;;;;;;153.93;58.53;;;5.20;99.90;;;;;;4174299;28;20029;-84
2021/04/20 06:20:48;;;;;;;143.52;61.28;;;5.30;99.90;;;;;;4181386;28;20053;-86
2021/04/20 06:22:52;;;;;;;164.93;61.53;;;5.40;99.90;;;;;;4180627;28;20488;-85
2021/04/20 06:24:53;;;;;;;166.85;61.72;;;5.40;99.90;;;;;;4180773;28;20036;-87
2021/04/20 06:26:55;;;;;;;165.90;62.55;;;5.60;99.90;;;;;;4159705;28;20128;-84
2021/04/20 06:28:56;;;;;;;159.70;62.33;;;5.80;99.90;;;;;;4184452;28;20033;-83
2021/04/20 06:30:58;;;;;;;147.73;60.20;;;5.80;99.90;;;;;;4186824;28;20356;-82
2021/04/20 06:32:59;;;;;;;148.98;62.42;;;5.90;99.90;;;;;;4170586;28;20112;-82
2021/04/20 06:35:00;;;;;;;171.07;64.20;;;6.00;99.90;;;;;;4173904;28;20116;-83
2021/04/20 06:37:02;;;;;;;171.52;65.78;;;6.10;99.90;;;;;;4168634;28;20547;-79
2021/04/20 06:39:04;;;;;;;137.65;60.25;;;6.20;99.90;;;;;;4174459;28;20033;-83
2021/04/20 06:41:08;;;;;;;132.45;62.45;;;6.30;99.90;;;;;;4162661;28;20539;-84
2021/04/20 06:43:14;;;;;;;133.40;61.58;;;6.30;99.90;;;;;;4180045;28;20380;-84
2021/04/20 06:45:24;;;;;;;135.30;60.72;;;6.40;99.90;;;;;;4179297;28;20044;-84
2021/04/20 06:47:40;;;;;;;152.10;66.53;;;6.50;99.90;;;;;;4161506;28;20087;-84
2021/04/20 06:49:54;;;;;;;127.20;59.13;;;6.60;99.90;;;;;;4181658;28;20025;-85
2021/04/20 06:52:01;;;;;;;140.85;64.47;;;6.80;99.90;;;;;;4172845;28;20033;-84
2021/04/20 06:54:33;;;;;;;143.77;63.08;;;6.90;99.90;;;;;;4179251;28;20399;-83
2021/04/20 06:56:36;;;;;;;133.25;61.20;;;7.00;99.90;;;;;;4145502;28;20061;-85
2021/04/20 06:58:58;;;;;;;135.82;60.20;;;7.20;99.90;;;;;;4185651;28;21041;-84
2021/04/20 07:01:02;;;;;;;127.03;60.97;;;7.20;99.90;;;;;;4148185;28;20030;-83
2021/04/20 07:03:28;;;;;;;119.72;60.75;;;7.30;99.90;;;;;;4181001;28;20021;-84
2021/04/20 07:05:34;;;;;;;118.68;59.63;;;7.40;99.90;;;;;;4152270;28;20039;-85
2021/04/20 07:07:58;;;;;;;120.78;59.90;;;7.50;99.90;;;;;;4153398;28;20062;-85
2021/04/20 07:10:18;;;;;;;123.10;60.30;;;7.60;99.90;;;;;;4182207;28;20436;-85
2021/04/20 07:12:21;;;;;;;115.05;58.67;;;7.70;99.90;;;;;;4185053;28;20447;-85
2021/04/20 07:14:34;;;;;;;114.45;58.55;;;7.80;99.90;;;;;;4181001;28;20055;-85
2021/04/20 07:16:50;;;;;;;119.13;58.10;;;7.90;99.90;;;;;;4178775;28;20051;-85
2021/04/20 07:19:36;;;;;;;114.05;56.83;;;8.00;99.90;;;;;;4181246;28;20025;-85
2021/04/20 07:22:08;;;;;;;107.65;59.00;;;8.20;99.90;;;;;;4095458;28;20126;-83
2021/04/20 07:24:49;;;;;;;115.38;57.47;;;8.30;99.90;;;;;;4145544;28;20025;-84
2021/04/20 07:27:04;;;;;;;101.28;56.80;;;8.50;99.90;;;;;;4104817;28;20034;-85
2021/04/20 07:29:20;;;;;;;105.57;58.55;;;8.70;99.90;;;;;;4180547;28;20098;-84
2021/04/20 07:31:59;;;;;;;109.78;57.22;;;8.80;99.90;;;;;;4172432;28;20104;-85
2021/04/20 07:34:21;;;;;;;99.03;59.50;;;9.00;99.90;;;;;;4162219;28;20033;-85
2021/04/20 07:36:37;;;;;;;107.40;57.55;;;9.10;99.90;;;;;;4165581;28;20120;-84
2021/04/20 07:38:59;;;;;;;93.70;56.58;;;9.30;99.90;;;;;;4160045;28;20126;-84
2021/04/20 07:41:20;;;;;;;91.22;55.38;;;9.50;99.90;;;;;;4169483;28;20021;-84
2021/04/20 07:43:31;;;;;;;95.32;58.03;;;9.60;99.90;;;;;;4179792;28;20068;-85
2021/04/20 07:45:51;;;;;;;97.68;57.28;;;9.80;99.90;;;;;;4162626;28;20068;-83
2021/04/20 07:48:04;;;;;;;94.00;55.50;;;10.00;99.90;;;;;;4170209;28;20029;-84
2021/04/20 07:50:22;;;;;;;93.85;57.20;;;10.10;99.90;;;;;;4158125;28;20491;-85
2021/04/20 07:52:35;;;;;;;88.82;54.42;;;10.30;99.90;;;;;;4175247;28;20053;-83
2021/04/20 07:54:59;;;;;;;78.97;54.13;;;10.40;99.90;;;;;;4165709;28;20059;-83
2021/04/20 07:57:25;;;;;;;82.00;55.97;;;10.60;99.90;;;;;;4178065;28;20029;-85
2021/04/20 07:59:33;;;;;;;82.57;54.85;;;10.80;99.90;;;;;;4168321;28;20037;-84
2021/04/20 08:01:57;;;;;;;73.97;49.90;;;10.90;99.90;;;;;;4169328;28;20116;-85
2021/04/20 08:04:18;;;;;;;77.72;51.85;;;11.10;99.90;;;;;;4179513;28;20032;-84
2021/04/20 08:06:26;;;;;;;73.03;49.08;;;11.30;99.90;;;;;;4156838;28;20030;-84
2021/04/20 08:08:46;;;;;;;69.38;50.47;;;11.50;99.90;;;;;;4163551;28;20136;-84
2021/04/20 08:11:05;;;;;;;70.40;49.55;;;11.70;99.90;;;;;;4177954;28;20048;-84
2021/04/20 08:13:27;;;;;;;71.80;48.97;;;11.80;99.90;;;;;;4179272;28;20021;-84
2021/04/20 08:15:35;;;;;;;63.65;46.40;;;11.90;99.90;;;;;;4155821;28;20417;-84
2021/04/20 08:17:42;;;;;;;59.75;44.80;;;12.00;99.90;;;;;;4167396;28;20145;-83
2021/04/20 08:19:49;;;;;;;57.40;44.17;;;12.20;99.90;;;;;;4180588;28;20739;-84
2021/04/20 08:21:50;;;;;;;56.08;42.45;;;12.30;99.90;;;;;;4164443;28;20029;-84
2021/04/20 08:23:54;;;;;;;57.50;41.15;;;12.40;99.90;;;;;;4177541;28;20032;-84
2021/04/20 08:26:26;;;;;;;51.88;39.60;;;12.50;99.90;;;;;;4162442;28;20026;-84
2021/04/20 08:28:46;;;;;;;55.92;40.58;;;12.60;99.90;;;;;;4161519;28;20087;-85
2021/04/20 08:30:50;;;;;;;52.42;37.70;;;12.60;99.90;;;;;;4163348;28;20064;-84
2021/04/20 08:32:53;;;;;;;51.03;38.90;;;12.60;99.90;;;;;;4163015;28;20040;-85
2021/04/20 08:35:17;;;;;;;49.92;38.75;;;12.80;99.90;;;;;;4184716;28;20025;-85
2021/04/20 08:37:28;;;;;;;;;;;13.20;99.90;;;;;;4164110;28;20056;-85
2021/04/20 08:39:58;;;;;;;48.03;35.50;;;13.40;99.90;;;;;;4163926;28;19913;-85
2021/04/20 08:42:20;;;;;;;47.00;35.25;;;13.60;99.90;;;;;;4181092;28;20431;-85
2021/04/20 08:44:35;;;;;;;43.17;34.28;;;13.80;99.90;;;;;;4181830;28;20472;-84
2021/04/20 08:47:11;;;;;;;43.17;34.65;;;13.90;99.90;;;;;;4185603;28;20514;-85
2021/04/20 08:49:23;;;;;;;38.85;30.85;;;14.10;99.90;;;;;;4175935;28;20063;-86
2021/04/20 08:51:48;;;;;;;42.27;35.33;;;14.20;99.90;;;;;;4162981;28;20053;-85
2021/04/20 08:54:02;;;;;;;40.17;32.90;;;14.30;99.90;;;;;;4166562;28;20492;-85
2021/04/20 08:56:12;;;;;;;36.20;30.85;;;14.40;99.90;;;;;;4187600;28;20803;-86
2021/04/20 08:58:50;;;;;;;33.47;29.63;;;14.40;99.90;;;;;;4162953;28;20030;-85
2021/04/20 09:01:35;;;;;;;34.63;28.60;;;14.60;99.90;;;;;;4155830;28;20037;-85
2021/04/20 09:04:13;;;;;;;31.63;27.45;;;14.80;99.90;;;;;;4194423;28;20044;-85
2021/04/20 09:06:34;;;;;;;35.55;28.00;;;15.10;99.90;;;;;;4183569;28;20164;-85
2021/04/20 09:08:57;;;;;;;32.75;28.05;;;15.10;99.90;;;;;;4181113;28;20044;-86
2021/04/20 09:11:15;;;;;;;31.40;27.30;;;15.30;99.90;;;;;;4162062;28;20026;-84
2021/04/20 09:13:22;;;;;;;33.38;29.08;;;15.50;99.90;;;;;;4163740;28;20022;-83
2021/04/20 09:15:25;;;;;;;30.95;27.60;;;15.70;99.90;;;;;;4180752;28;20456;-83
2021/04/20 09:17:31;;;;;;;31.73;28.17;;;15.80;99.90;;;;;;4179171;28;20127;-84
2021/04/20 09:19:41;;;;;;;36.65;29.05;;;15.90;99.90;;;;;;4181152;28;20087;-84
2021/04/20 09:22:04;;;;;;;29.88;26.23;;;16.10;99.90;;;;;;4182978;28;20033;-84
2021/04/20 09:24:15;;;;;;;32.65;27.00;;;16.10;99.90;;;;;;4179899;28;20357;-83
2021/04/20 09:26:23;;;;;;;29.90;26.33;;;16.40;99.90;;;;;;4165506;28;20025;-84
2021/04/20 09:28:39;;;;;;;32.35;27.27;;;16.20;99.90;;;;;;4162737;28;20037;-85
2021/04/20 09:30:54;;;;;;;29.15;25.77;;;16.20;99.90;;;;;;4185810;28;20021;-84
2021/04/20 09:33:20;;;;;;;30.10;24.88;;;16.50;99.90;;;;;;4162662;28;20082;-83
2021/04/20 09:35:21;;;;;;;28.27;24.63;;;16.80;99.90;;;;;;4180475;28;20017;-85
2021/04/20 09:37:23;;;;;;;27.98;23.90;;;17.10;99.90;;;;;;4181201;28;20071;-85
2021/04/20 09:39:26;;;;;;;26.20;23.33;;;17.60;99.90;;;;;;4179708;28;20017;-83
2021/04/20 09:41:47;;;;;;;27.83;23.92;;;17.90;99.90;;;;;;4166884;28;20033;-83
2021/04/20 09:44:05;;;;;;;23.33;20.88;;;18.10;99.90;;;;;;4167201;28;20033;-84
2021/04/20 09:46:15;;;;;;;22.60;19.95;;;17.90;99.90;;;;;;4164062;28;20034;-82
2021/04/20 09:48:33;;;;;;;24.40;21.70;;;17.70;99.90;;;;;;4164003;28;20026;-84
2021/04/20 09:51:08;;;;;;;25.88;22.20;;;17.80;99.90;;;;;;4182007;28;20061;-83
2021/04/20 09:53:24;;;;;;;27.83;24.80;;;17.90;99.90;;;;;;4172040;28;20055;-83
2021/04/20 09:55:33;;;;;;;29.63;24.80;;;17.70;99.90;;;;;;4183176;28;20606;-83
2021/04/20 09:57:38;;;;;;;28.25;25.08;;;17.60;99.90;;;;;;4167327;28;20061;-83
2021/04/20 09:59:53;;;;;;;31.23;25.85;;;17.50;99.90;;;;;;4162207;28;20048;-84
2021/04/20 10:02:22;;;;;;;27.75;24.80;;;17.40;99.90;;;;;;4184755;28;20025;-83
2021/04/20 10:04:41;;;;;;;30.05;24.65;;;17.60;99.90;;;;;;4154791;28;20044;-83
2021/04/20 10:07:00;;;;;;;27.27;23.77;;;17.50;99.90;;;;;;4161951;28;20362;-84
2021/04/20 10:09:26;;;;;;;27.63;24.33;;;17.70;99.90;;;;;;4153257;28;20099;-84
2021/04/20 10:12:04;;;;;;;27.27;24.23;;;17.90;99.90;;;;;;4159822;28;20576;-84
2021/04/20 10:14:35;;;;;;;27.75;24.02;;;18.00;99.90;;;;;;4159786;28;20045;-84
2021/04/20 10:17:05;;;;;;;25.73;23.00;;;18.20;99.90;;;;;;4161847;28;20064;-84
2021/04/20 10:19:18;;;;;;;30.92;23.27;;;18.60;99.90;;;;;;4140610;28;20076;-84
2021/04/20 10:21:27;;;;;;;25.60;21.53;;;19.50;99.90;;;;;;4178847;28;20032;-84
2021/04/20 10:23:45;;;;;;;23.70;20.42;;;20.90;99.90;;;;;;4168511;28;20040;-85
2021/04/20 10:25:59;;;;;;;23.27;20.80;;;22.00;99.90;;;;;;4165254;28;20120;-84
2021/04/20 10:28:13;;;;;;;25.45;22.63;;;22.00;98.10;;;;;;4172984;28;20040;-84
2021/04/20 10:30:19;;;;;;;23.15;20.83;;;22.40;97.30;;;;;;4183919;28;20033;-85
2021/04/20 10:32:30;;;;;;;21.15;18.95;;;22.70;92.60;;;;;;4179715;28;20029;-84
2021/04/20 10:34:33;;;;;;;21.48;19.25;;;22.70;91.30;;;;;;4161449;28;20033;-83
2021/04/20 10:36:34;;;;;;;;;;;23.10;83.80;;;;;;4179271;28;20060;-83
2021/04/20 10:38:36;;;;;;;22.30;19.92;;;23.00;81.70;;;;;;4188683;28;19924;-83
2021/04/20 10:40:37;;;;;;;22.75;20.42;;;22.60;87.50;;;;;;4161442;28;20033;-82
2021/04/20 10:42:40;;;;;;;22.40;20.05;;;22.50;87.50;;;;;;4178859;28;20077;-82
2021/04/20 10:44:43;;;;;;;24.67;21.48;;;22.20;88.20;;;;;;4180129;28;20103;-81
2021/04/20 10:46:50;;;;;;;26.50;22.02;;;21.60;87.40;;;;;;4163936;28;20109;-86
2021/04/20 10:48:56;;;;;;;23.40;20.88;;;20.50;88.70;;;;;;4178964;28;20112;-83